createdAt,value
2018-02-09T00:00:17.878Z,99.99
2018-02-09T00:01:17.743Z,99.99
2018-02-09T00:02:17.609Z,99.99
2018-02-09T00:03:17.476Z,99.99
2018-02-09T00:04:17.340Z,99.99
2018-02-09T00:05:17.206Z,99.99
2018-02-09T00:06:17.087Z,99.99
2018-02-09T00:07:16.940Z,99.99
2018-02-09T00:08:16.803Z,99.99
2018-02-09T00:09:16.669Z,99.99
2018-02-09T00:10:16.534Z,99.99
2018-02-09T00:11:16.404Z,99.99
2018-02-09T00:12:16.267Z,99.99
2018-02-09T00:13:16.132Z,99.99
2018-02-09T00:14:15.998Z,99.99
2018-02-09T00:15:15.862Z,99.99
2018-02-09T00:16:15.732Z,99.99
2018-02-09T00:17:15.592Z,99.99
2018-02-09T00:18:15.458Z,99.99
2018-02-09T00:19:15.325Z,99.99
2018-02-09T00:20:15.190Z,99.99
2018-02-09T00:21:15.063Z,99.99
2018-02-09T00:22:14.940Z,99.99
2018-02-09T00:23:14.786Z,99.99
2018-02-09T00:24:14.652Z,99.99
2018-02-09T00:25:14.524Z,99.99
2018-02-09T00:26:14.382Z,99.99
2018-02-09T00:27:14.250Z,99.99
2018-02-09T00:28:14.115Z,99.99
2018-02-09T00:29:13.980Z,99.99
2018-02-09T00:30:13.844Z,99.99
2018-02-09T00:31:13.712Z,99.99
2018-02-09T00:32:13.585Z,99.99
2018-02-09T00:33:13.441Z,99.99
2018-02-09T00:34:13.307Z,99.99
2018-02-09T00:35:13.173Z,99.99
2018-02-09T00:36:13.064Z,99.99
2018-02-09T00:37:12.915Z,99.99
2018-02-09T00:38:12.770Z,99.99
2018-02-09T00:39:12.641Z,99.99
2018-02-09T00:40:12.505Z,99.99
2018-02-09T00:41:12.366Z,99.99
2018-02-09T00:42:12.252Z,99.99
2018-02-09T00:43:12.097Z,99.99
2018-02-09T00:44:11.960Z,99.99
2018-02-09T00:45:11.827Z,99.99
2018-02-09T00:46:11.695Z,99.99
2018-02-09T00:47:11.565Z,99.99
2018-02-09T00:48:11.426Z,99.99
2018-02-09T00:49:11.290Z,99.99
2018-02-09T00:50:11.156Z,99.99
2018-02-09T00:51:11.021Z,99.99
2018-02-09T00:52:10.890Z,99.99
2018-02-09T00:53:10.755Z,99.99
2018-02-09T00:54:10.621Z,99.99
2018-02-09T00:55:10.486Z,99.99
2018-02-09T00:56:10.353Z,99.99
2018-02-09T00:57:10.217Z,99.99
2018-02-09T00:58:10.083Z,99.99
2018-02-09T00:59:09.950Z,99.99
2018-02-09T01:00:09.813Z,99.99
2018-02-09T01:01:09.681Z,99.99
2018-02-09T01:02:09.548Z,99.99
2018-02-09T01:03:09.414Z,99.99
2018-02-09T01:04:09.280Z,99.99
2018-02-09T01:05:09.144Z,99.99
2018-02-09T01:06:09.010Z,99.99
2018-02-09T01:07:08.879Z,99.99
2018-02-09T01:08:08.742Z,99.99
2018-02-09T01:09:08.606Z,99.99
2018-02-09T01:10:08.474Z,99.99
2018-02-09T01:11:08.342Z,99.79
2018-02-09T01:12:08.204Z,99.88
2018-02-09T01:13:08.068Z,99.99
2018-02-09T01:14:07.936Z,99.99
2018-02-09T01:15:07.799Z,99.99
2018-02-09T01:16:07.676Z,99.99
2018-02-09T01:17:07.530Z,99.99
2018-02-09T01:18:07.413Z,99.99
2018-02-09T01:19:07.262Z,99.99
2018-02-09T01:20:07.125Z,99.98
2018-02-09T01:21:06.990Z,99.99
2018-02-09T01:22:06.857Z,99.99
2018-02-09T01:23:06.723Z,99.99
2018-02-09T01:24:06.588Z,99.99
2018-02-09T01:25:06.452Z,99.99
2018-02-09T01:26:06.342Z,99.99
2018-02-09T01:27:06.184Z,99.99
2018-02-09T01:28:06.050Z,99.88
2018-02-09T01:29:05.912Z,99.99
2018-02-09T01:30:05.776Z,99.99
2018-02-09T01:31:05.641Z,99.99
2018-02-09T01:32:05.505Z,99.99
2018-02-09T01:33:05.368Z,99.99
2018-02-09T01:34:05.235Z,99.99
2018-02-09T01:35:05.099Z,99.99
2018-02-09T01:36:04.963Z,99.99
2018-02-09T01:37:04.830Z,99.88
2018-02-09T01:38:04.697Z,99.79
2018-02-09T01:39:04.568Z,99.99
2018-02-09T01:40:04.422Z,99.69
2018-02-09T01:41:04.284Z,99.99
2018-02-09T01:42:04.149Z,99.79
2018-02-09T01:43:04.013Z,99.99
2018-02-09T01:44:03.877Z,99.88
2018-02-09T01:45:03.742Z,99.88
2018-02-09T01:46:03.606Z,99.98
2018-02-09T01:47:03.471Z,99.88
2018-02-09T01:48:03.333Z,99.99
2018-02-09T01:49:03.198Z,99.99
2018-02-09T01:50:03.061Z,99.99
2018-02-09T01:51:02.928Z,99.99
2018-02-09T01:52:02.788Z,99.69
2018-02-09T01:53:02.653Z,99.98
2018-02-09T01:54:02.531Z,99.99
2018-02-09T01:55:02.382Z,99.83
2018-02-09T01:56:02.245Z,99.99
2018-02-09T01:57:02.111Z,99.83
2018-02-09T01:58:02.026Z,99.99
2018-02-09T01:59:01.873Z,99.99
2018-02-09T02:00:01.698Z,99.99
2018-02-09T02:01:01.564Z,99.99
2018-02-09T02:02:01.430Z,99.99
2018-02-09T02:03:01.322Z,99.99
2018-02-09T02:04:01.205Z,99.99
2018-02-09T02:05:01.019Z,99.99
2018-02-09T02:06:00.883Z,99.99
2018-02-09T02:07:00.749Z,99.99
2018-02-09T02:08:00.638Z,99.99
2018-02-09T02:09:00.477Z,99.99
2018-02-09T02:10:00.336Z,99.98
2018-02-09T02:11:00.207Z,99.99
2018-02-09T02:12:00.064Z,99.99
2018-02-09T02:12:59.928Z,99.93
2018-02-09T02:13:59.793Z,99.99
2018-02-09T02:14:59.654Z,99.99
2018-02-09T02:15:59.519Z,99.99
2018-02-09T02:16:59.383Z,99.69
2018-02-09T02:17:59.246Z,99.93
2018-02-09T02:18:59.112Z,99.69
2018-02-09T02:19:58.973Z,99.55
2018-02-09T02:20:58.842Z,99.45
2018-02-09T02:21:58.702Z,99.74
2018-02-09T02:22:58.566Z,99.26
2018-02-09T02:23:58.433Z,99.64
2018-02-09T02:24:58.292Z,99.26
2018-02-09T02:25:58.158Z,99.26
2018-02-09T02:26:58.022Z,99.45
2018-02-09T02:27:57.885Z,99.55
2018-02-09T02:28:57.775Z,99.83
2018-02-09T02:29:57.638Z,99.74
2018-02-09T02:30:57.480Z,99.74
2018-02-09T02:31:57.340Z,99.99
2018-02-09T02:32:57.207Z,99.99
2018-02-09T02:33:57.067Z,99.45
2018-02-09T02:34:56.936Z,99.99
2018-02-09T02:35:56.795Z,99.99
2018-02-09T02:36:56.657Z,99.64
2018-02-09T02:37:56.523Z,99.99
2018-02-09T02:38:56.391Z,99.74
2018-02-09T02:39:56.268Z,99.93
2018-02-09T02:40:56.115Z,99.99
2018-02-09T02:41:55.985Z,99.99
2018-02-09T02:42:55.842Z,99.99
2018-02-09T02:43:55.706Z,99.99
2018-02-09T02:44:55.574Z,99.99
2018-02-09T02:45:55.432Z,99.99
2018-02-09T02:46:55.294Z,99.99
2018-02-09T02:47:55.158Z,99.55
2018-02-09T02:48:55.022Z,99.99
2018-02-09T02:49:54.932Z,99.69
2018-02-09T02:50:54.750Z,99.99
2018-02-09T02:51:54.614Z,99.99
2018-02-09T02:52:54.477Z,99.83
2018-02-09T02:53:54.341Z,99.51
2018-02-09T02:54:54.204Z,99.36
2018-02-09T02:55:54.069Z,99.17
2018-02-09T02:56:53.934Z,99.64
2018-02-09T02:57:53.796Z,99.45
2018-02-09T02:58:53.658Z,99.93
2018-02-09T02:59:53.521Z,99.74
2018-02-09T03:00:53.395Z,99.74
2018-02-09T03:01:53.248Z,99.99
2018-02-09T03:02:53.114Z,99.99
2018-02-09T03:03:52.986Z,99.99
2018-02-09T03:04:52.843Z,99.99
2018-02-09T03:05:52.705Z,99.99
2018-02-09T03:06:52.568Z,99.93
2018-02-09T03:07:52.433Z,99.99
2018-02-09T03:08:52.296Z,99.99
2018-02-09T03:09:52.161Z,99.93
2018-02-09T03:10:52.022Z,99.99
2018-02-09T03:11:51.887Z,99.36
2018-02-09T03:12:51.757Z,99.99
2018-02-09T03:13:51.612Z,99.99
2018-02-09T03:14:51.478Z,99.99
2018-02-09T03:15:51.344Z,99.99
2018-02-09T03:16:51.202Z,99.99
2018-02-09T03:17:51.071Z,99.99
2018-02-09T03:18:50.933Z,99.99
2018-02-09T03:19:50.800Z,99.99
2018-02-09T03:20:50.661Z,99.99
2018-02-09T03:21:50.521Z,99.99
2018-02-09T03:22:50.386Z,99.99
2018-02-09T03:23:50.249Z,99.83
2018-02-09T03:24:50.111Z,99.74
2018-02-09T03:25:49.976Z,99.83
2018-02-09T03:26:49.841Z,99.55
2018-02-09T03:27:49.702Z,99.45
2018-02-09T03:28:49.566Z,99.26
2018-02-09T03:29:49.429Z,99.45
2018-02-09T03:30:49.293Z,99.45
2018-02-09T03:31:49.156Z,99.83
2018-02-09T03:32:49.019Z,99.99
2018-02-09T03:33:48.882Z,99.74
2018-02-09T03:34:48.747Z,99.74
2018-02-09T03:35:48.609Z,99.55
2018-02-09T03:36:48.472Z,99.83
2018-02-09T03:37:48.335Z,99.99
2018-02-09T03:38:48.200Z,99.99
2018-02-09T03:39:48.061Z,99.99
2018-02-09T03:40:47.925Z,99.83
2018-02-09T03:41:47.790Z,99.99
2018-02-09T03:42:47.652Z,99.93
2018-02-09T03:43:47.516Z,99.36
2018-02-09T03:44:47.379Z,99.55
2018-02-09T03:45:47.242Z,99.74
2018-02-09T03:46:47.109Z,99.99
2018-02-09T03:47:46.967Z,99.74
2018-02-09T03:48:46.831Z,99.83
2018-02-09T03:49:46.694Z,99.64
2018-02-09T03:50:46.558Z,99.64
2018-02-09T03:51:46.420Z,99.83
2018-02-09T03:52:46.284Z,99.93
2018-02-09T03:53:46.147Z,99.93
2018-02-09T03:54:46.010Z,99.45
2018-02-09T03:55:45.872Z,99.74
2018-02-09T03:56:45.736Z,99.74
2018-02-09T03:57:45.598Z,99.99
2018-02-09T03:58:45.464Z,99.64
2018-02-09T03:59:45.324Z,99.93
2018-02-09T04:00:45.201Z,99.45
2018-02-09T04:01:45.054Z,99.83
2018-02-09T04:02:44.913Z,99.64
2018-02-09T04:03:44.775Z,99.74
2018-02-09T04:04:44.644Z,99.93
2018-02-09T04:05:44.513Z,99.74
2018-02-09T04:06:44.367Z,99.99
2018-02-09T04:07:44.229Z,99.64
2018-02-09T04:08:44.095Z,99.26
2018-02-09T04:09:43.954Z,99.64
2018-02-09T04:10:43.826Z,99.83
2018-02-09T04:11:43.684Z,99.83
2018-02-09T04:12:43.557Z,99.64
2018-02-09T04:13:43.409Z,99.45
2018-02-09T04:14:43.272Z,99.64
2018-02-09T04:15:43.729Z,99.74
2018-02-09T04:16:42.999Z,99.45
2018-02-09T04:17:42.864Z,99.55
2018-02-09T04:18:42.723Z,99.64
2018-02-09T04:19:42.593Z,99.64
2018-02-09T04:20:42.503Z,99.64
2018-02-09T04:21:42.315Z,99.83
2018-02-09T04:22:42.176Z,99.99
2018-02-09T04:23:42.042Z,99.93
2018-02-09T04:24:41.906Z,99.83
2018-02-09T04:25:41.768Z,99.83
2018-02-09T04:26:41.641Z,99.36
2018-02-09T04:27:41.495Z,99.08
2018-02-09T04:28:41.357Z,99.45
2018-02-09T04:29:41.225Z,99.93
2018-02-09T04:30:41.083Z,99.55
2018-02-09T04:31:40.946Z,99.74
2018-02-09T04:32:40.810Z,99.36
2018-02-09T04:33:40.677Z,99.26
2018-02-09T04:34:40.539Z,99.74
2018-02-09T04:35:40.400Z,99.64
2018-02-09T04:36:40.263Z,99.36
2018-02-09T04:37:40.172Z,99.83
2018-02-09T04:38:39.990Z,99.83
2018-02-09T04:39:39.851Z,99.45
2018-02-09T04:40:39.718Z,99.64
2018-02-09T04:41:39.579Z,99.45
2018-02-09T04:42:39.442Z,99.93
2018-02-09T04:43:39.301Z,99.64
2018-02-09T04:44:39.169Z,98.98
2018-02-09T04:45:39.031Z,99.99
2018-02-09T04:46:38.895Z,99.45
2018-02-09T04:47:38.756Z,99.36
2018-02-09T04:48:38.618Z,99.83
2018-02-09T04:49:38.485Z,99.45
2018-02-09T04:50:38.346Z,99.74
2018-02-09T04:51:38.211Z,99.93
2018-02-09T04:52:38.072Z,99.45
2018-02-09T04:53:37.936Z,99.08
2018-02-09T04:54:37.798Z,99.08
2018-02-09T04:55:37.671Z,99.36
2018-02-09T04:56:37.526Z,98.98
2018-02-09T04:57:37.394Z,99.74
2018-02-09T04:58:37.252Z,99.64
2018-02-09T04:59:37.115Z,99.45
2018-02-09T05:00:36.994Z,99.64
2018-02-09T05:01:36.842Z,99.45
2018-02-09T05:02:36.705Z,99.93
2018-02-09T05:03:36.565Z,99.93
2018-02-09T05:04:36.430Z,99.74
2018-02-09T05:05:36.294Z,99.64
2018-02-09T05:06:36.161Z,99.99
2018-02-09T05:07:36.020Z,99.93
2018-02-09T05:08:35.881Z,99.36
2018-02-09T05:09:35.747Z,99.83
2018-02-09T05:10:35.608Z,99.17
2018-02-09T05:11:35.470Z,99.08
2018-02-09T05:12:35.335Z,99.74
2018-02-09T05:13:35.200Z,99.45
2018-02-09T05:14:35.061Z,99.45
2018-02-09T05:15:34.925Z,99.64
2018-02-09T05:16:34.784Z,99.74
2018-02-09T05:17:34.648Z,99.64
2018-02-09T05:18:34.510Z,99.45
2018-02-09T05:19:34.377Z,99.64
2018-02-09T05:20:34.239Z,99.83
2018-02-09T05:21:34.150Z,99.55
2018-02-09T05:22:33.964Z,99.64
2018-02-09T05:23:33.825Z,99.45
2018-02-09T05:24:33.688Z,99.64
2018-02-09T05:25:33.553Z,99.83
2018-02-09T05:26:33.428Z,99.45
2018-02-09T05:27:33.330Z,99.26
2018-02-09T05:28:33.140Z,99.55
2018-02-09T05:29:33.003Z,99.64
2018-02-09T05:30:32.871Z,99.55
2018-02-09T05:31:32.736Z,99.64
2018-02-09T05:32:32.659Z,99.83
2018-02-09T05:33:32.455Z,99.26
2018-02-09T05:34:32.320Z,99.55
2018-02-09T05:35:32.184Z,99.64
2018-02-09T05:36:32.044Z,99.08
2018-02-09T05:37:31.910Z,99.08
2018-02-09T05:38:31.777Z,99.36
2018-02-09T05:39:31.640Z,99.17
2018-02-09T05:40:31.551Z,99.08
2018-02-09T05:41:31.378Z,99.45
2018-02-09T05:42:31.225Z,99.55
2018-02-09T05:43:31.089Z,99.55
2018-02-09T05:44:30.953Z,99.55
2018-02-09T05:45:30.821Z,99.64
2018-02-09T05:46:30.687Z,99.36
2018-02-09T05:47:30.545Z,99.26
2018-02-09T05:48:30.407Z,99.64
2018-02-09T05:49:30.269Z,99.74
2018-02-09T05:50:30.132Z,99.64
2018-02-09T05:51:30.003Z,99.64
2018-02-09T05:52:29.861Z,99.08
2018-02-09T05:53:29.722Z,99.45
2018-02-09T05:54:29.587Z,99.55
2018-02-09T05:55:29.462Z,99.36
2018-02-09T05:56:29.347Z,99.55
2018-02-09T05:57:29.180Z,99.55
2018-02-09T05:58:29.040Z,99.64
2018-02-09T05:59:28.905Z,99.45
2018-02-09T06:00:28.769Z,99.36
2018-02-09T06:01:28.634Z,99.64
2018-02-09T06:02:28.490Z,99.17
2018-02-09T06:03:28.355Z,99.64
2018-02-09T06:04:28.219Z,99.45
2018-02-09T06:05:28.080Z,99.64
2018-02-09T06:06:27.960Z,99.74
2018-02-09T06:07:27.805Z,99.64
2018-02-09T06:08:27.671Z,99.74
2018-02-09T06:09:27.534Z,99.74
2018-02-09T06:10:27.396Z,99.83
2018-02-09T06:11:27.270Z,99.83
2018-02-09T06:12:27.121Z,99.74
2018-02-09T06:13:26.984Z,99.83
2018-02-09T06:14:26.848Z,99.55
2018-02-09T06:15:26.711Z,99.45
2018-02-09T06:16:26.576Z,98.98
2018-02-09T06:17:26.436Z,99.45
2018-02-09T06:18:26.298Z,99.93
2018-02-09T06:19:26.162Z,99.74
2018-02-09T06:20:26.026Z,99.55
2018-02-09T06:21:25.901Z,99.64
2018-02-09T06:22:25.751Z,99.64
2018-02-09T06:23:25.611Z,99.08
2018-02-09T06:24:25.476Z,99.74
2018-02-09T06:25:25.341Z,99.74
2018-02-09T06:26:25.203Z,99.55
2018-02-09T06:27:25.063Z,99.45
2018-02-09T06:28:24.929Z,99.64
2018-02-09T06:29:24.790Z,99.55
2018-02-09T06:30:24.668Z,99.64
2018-02-09T06:31:24.527Z,99.55
2018-02-09T06:32:24.380Z,99.74
2018-02-09T06:33:24.243Z,99.26
2018-02-09T06:34:24.107Z,99.45
2018-02-09T06:35:23.967Z,99.74
2018-02-09T06:36:23.831Z,99.55
2018-02-09T06:37:23.701Z,99.26
2018-02-09T06:38:23.560Z,99.64
2018-02-09T06:39:23.420Z,99.36
2018-02-09T06:40:23.282Z,99.36
2018-02-09T06:41:23.155Z,99.17
2018-02-09T06:42:23.010Z,99.36
2018-02-09T06:43:22.870Z,99.55
2018-02-09T06:44:22.740Z,99.74
2018-02-09T06:45:22.598Z,99.83
2018-02-09T06:46:22.462Z,99.64
2018-02-09T06:47:22.332Z,99.93
2018-02-09T06:48:22.188Z,99.99
2018-02-09T06:49:22.049Z,99.83
2018-02-09T06:50:21.915Z,99.26
2018-02-09T06:51:21.775Z,99.74
2018-02-09T06:52:21.644Z,99.64
2018-02-09T06:53:21.504Z,99.55
2018-02-09T06:54:21.365Z,99.32
2018-02-09T06:55:21.227Z,99.45
2018-02-09T06:56:21.100Z,99.55
2018-02-09T06:57:20.961Z,99.69
2018-02-09T06:58:20.830Z,99.32
2018-02-09T06:59:20.685Z,99.69
2018-02-09T07:00:20.547Z,99.32
2018-02-09T07:01:20.416Z,99.79
2018-02-09T07:02:20.280Z,99.79
2018-02-09T07:03:20.142Z,99.79
2018-02-09T07:04:20.005Z,99.88
2018-02-09T07:05:19.872Z,99.41
2018-02-09T07:06:19.731Z,99.41
2018-02-09T07:07:19.595Z,99.60
2018-02-09T07:08:19.457Z,99.79
2018-02-09T07:09:19.323Z,99.88
2018-02-09T07:10:19.191Z,99.22
2018-02-09T07:11:19.050Z,99.51
2018-02-09T07:12:18.910Z,99.51
2018-02-09T07:13:18.776Z,99.22
2018-02-09T07:14:18.641Z,99.22
2018-02-09T07:15:18.512Z,99.41
2018-02-09T07:16:18.367Z,99.51
2018-02-09T07:17:18.234Z,99.41
2018-02-09T07:18:18.099Z,99.60
2018-02-09T07:19:17.958Z,99.22
2018-02-09T07:20:17.835Z,99.79
2018-02-09T07:21:17.690Z,99.79
2018-02-09T07:22:17.554Z,99.79
2018-02-09T07:23:17.419Z,99.69
2018-02-09T07:24:17.281Z,99.69
2018-02-09T07:25:17.146Z,99.03
2018-02-09T07:26:17.012Z,99.13
2018-02-09T07:27:16.876Z,98.99
2018-02-09T07:28:16.740Z,99.65
2018-02-09T07:29:16.609Z,99.46
2018-02-09T07:30:16.469Z,99.93
2018-02-09T07:31:16.336Z,99.99
2018-02-09T07:32:16.201Z,99.93
2018-02-09T07:33:16.066Z,99.79
2018-02-09T07:34:15.931Z,98.47
2018-02-09T07:35:15.796Z,98.37
2018-02-09T07:36:15.659Z,98.09
2018-02-09T07:37:15.524Z,98.56
2018-02-09T07:38:15.390Z,98.75
2018-02-09T07:39:15.254Z,98.37
2018-02-09T07:40:15.123Z,97.99
2018-02-09T07:41:14.988Z,98.18
2018-02-09T07:42:14.849Z,98.84
2018-02-09T07:43:14.742Z,99.41
2018-02-09T07:44:14.582Z,99.99
2018-02-09T07:45:14.444Z,99.98
2018-02-09T07:46:14.309Z,99.18
2018-02-09T07:47:14.172Z,99.99
2018-02-09T07:48:14.040Z,99.60
2018-02-09T07:49:13.903Z,97.99
2018-02-09T07:50:13.770Z,97.80
2018-02-09T07:51:13.685Z,97.24
2018-02-09T07:52:13.497Z,97.43
2018-02-09T07:53:13.367Z,98.18
2018-02-09T07:54:13.231Z,98.37
2018-02-09T07:55:13.093Z,98.37
2018-02-09T07:56:12.962Z,99.13
2018-02-09T07:57:12.828Z,98.56
2018-02-09T07:58:12.690Z,98.65
2018-02-09T07:59:12.555Z,98.94
2018-02-09T08:00:12.422Z,99.51
2018-02-09T08:01:12.284Z,99.51
2018-02-09T08:02:12.149Z,99.88
2018-02-09T08:03:12.014Z,99.99
2018-02-09T08:04:11.879Z,99.99
2018-02-09T08:05:11.742Z,99.98
2018-02-09T08:06:11.612Z,98.84
2018-02-09T08:07:11.477Z,97.24
2018-02-09T08:08:11.342Z,96.95
2018-02-09T08:09:11.207Z,97.71
2018-02-09T08:10:11.068Z,97.90
2018-02-09T08:11:10.935Z,98.56
2018-02-09T08:12:10.798Z,97.90
2018-02-09T08:13:10.665Z,98.18
2018-02-09T08:14:10.526Z,97.99
2018-02-09T08:15:10.393Z,98.18
2018-02-09T08:16:10.257Z,98.94
2018-02-09T08:17:10.122Z,98.84
2018-02-09T08:18:09.985Z,99.03
2018-02-09T08:19:09.855Z,99.13
2018-02-09T08:20:09.715Z,98.84
2018-02-09T08:21:09.584Z,99.51
2018-02-09T08:22:09.446Z,99.74
2018-02-09T08:23:09.317Z,99.18
2018-02-09T08:24:09.177Z,99.18
2018-02-09T08:25:09.050Z,98.80
2018-02-09T08:26:08.909Z,98.71
2018-02-09T08:27:08.772Z,99.13
2018-02-09T08:28:08.688Z,97.24
2018-02-09T08:29:08.504Z,96.11
2018-02-09T08:30:08.394Z,95.83
2018-02-09T08:31:08.234Z,93.75
2018-02-09T08:32:08.107Z,90.26
2018-02-09T08:33:07.968Z,89.50
2018-02-09T08:34:07.836Z,89.17
2018-02-09T08:35:07.701Z,89.36
2018-02-09T08:36:07.567Z,90.40
2018-02-09T08:37:07.436Z,91.91
2018-02-09T08:38:07.305Z,91.63
2018-02-09T08:39:07.168Z,91.44
2018-02-09T08:40:07.035Z,93.04
2018-02-09T08:41:06.899Z,92.14
2018-02-09T08:42:06.765Z,89.69
2018-02-09T08:43:06.632Z,88.28
2018-02-09T08:44:06.500Z,87.24
2018-02-09T08:45:06.367Z,86.95
2018-02-09T08:46:06.235Z,87.62
2018-02-09T08:47:06.102Z,85.39
2018-02-09T08:48:05.968Z,84.07
2018-02-09T08:49:05.838Z,84.26
2018-02-09T08:50:05.703Z,84.01
2018-02-09T08:51:05.570Z,80.52
2018-02-09T08:52:05.436Z,78.53
2018-02-09T08:53:05.304Z,77.21
2018-02-09T08:54:05.173Z,78.01
2018-02-09T08:55:05.043Z,77.25
2018-02-09T08:56:04.909Z,77.34
2018-02-09T08:57:04.782Z,75.68
2018-02-09T08:58:04.647Z,74.26
2018-02-09T08:59:04.515Z,73.98
2018-02-09T09:00:04.388Z,71.61
2018-02-09T09:01:04.257Z,68.68
2018-02-09T09:02:04.127Z,68.96
2018-02-09T09:03:04.003Z,69.15
2018-02-09T09:04:03.866Z,68.30
2018-02-09T09:05:03.737Z,66.98
2018-02-09T09:06:03.608Z,67.64
2018-02-09T09:07:03.477Z,67.20
2018-02-09T09:08:03.348Z,66.92
2018-02-09T09:09:03.220Z,66.25
2018-02-09T09:10:03.090Z,65.21
2018-02-09T09:11:02.960Z,65.21
2018-02-09T09:12:02.831Z,65.59
2018-02-09T09:13:02.700Z,65.21
2018-02-09T09:14:02.575Z,64.71
2018-02-09T09:15:02.444Z,65.56
2018-02-09T09:16:02.316Z,68.52
2018-02-09T09:17:02.185Z,68.33
2018-02-09T09:18:02.054Z,69.00
2018-02-09T09:19:01.927Z,68.43
2018-02-09T09:20:01.807Z,67.49
2018-02-09T09:21:01.670Z,67.64
2018-02-09T09:22:01.542Z,69.00
2018-02-09T09:23:01.414Z,69.06
2018-02-09T09:24:01.281Z,68.77
2018-02-09T09:25:01.154Z,68.49
2018-02-09T09:26:01.023Z,68.49
2018-02-09T09:27:00.892Z,68.40
2018-02-09T09:28:00.765Z,68.21
2018-02-09T09:29:00.638Z,68.43
2018-02-09T09:30:00.526Z,67.77
2018-02-09T09:31:00.378Z,66.50
2018-02-09T09:32:00.250Z,66.53
2018-02-09T09:33:00.124Z,65.59
2018-02-09T09:33:59.991Z,65.21
2018-02-09T09:34:59.862Z,64.36
2018-02-09T09:35:59.733Z,65.02
2018-02-09T09:36:59.602Z,64.74
2018-02-09T09:37:59.480Z,64.45
2018-02-09T09:38:59.345Z,63.89
2018-02-09T09:39:59.215Z,63.73
2018-02-09T09:40:59.091Z,63.54
2018-02-09T09:41:58.957Z,62.88
2018-02-09T09:42:58.827Z,61.77
2018-02-09T09:43:58.698Z,61.96
2018-02-09T09:44:58.570Z,61.11
2018-02-09T09:45:58.442Z,62.24
2018-02-09T09:46:58.313Z,61.68
2018-02-09T09:47:58.184Z,61.02
2018-02-09T09:48:58.058Z,60.47
2018-02-09T09:49:57.929Z,59.44
2018-02-09T09:50:57.800Z,59.53
2018-02-09T09:51:57.672Z,59.15
2018-02-09T09:52:57.544Z,59.63
2018-02-09T09:53:57.417Z,58.84
2018-02-09T09:54:57.287Z,59.22
2018-02-09T09:55:57.159Z,60.35
2018-02-09T09:56:57.032Z,60.54
2018-02-09T09:57:56.906Z,61.58
2018-02-09T09:58:56.775Z,61.68
2018-02-09T09:59:56.646Z,61.74
2018-02-09T10:00:56.517Z,62.12
2018-02-09T10:01:56.392Z,63.89
2018-02-09T10:02:56.262Z,63.82
2018-02-09T10:03:56.134Z,63.92
2018-02-09T10:04:56.005Z,64.87
2018-02-09T10:05:55.878Z,63.98
2018-02-09T10:06:55.747Z,65.31
2018-02-09T10:07:55.619Z,65.59
2018-02-09T10:08:55.488Z,66.82
2018-02-09T10:09:55.362Z,66.63
2018-02-09T10:10:55.230Z,65.40
2018-02-09T10:11:55.102Z,65.69
2018-02-09T10:12:54.975Z,65.78
2018-02-09T10:13:54.844Z,65.59
2018-02-09T10:14:54.716Z,65.21
2018-02-09T10:15:54.588Z,65.50
2018-02-09T10:16:54.458Z,65.69
2018-02-09T10:17:54.345Z,66.82
2018-02-09T10:18:54.204Z,66.47
2018-02-09T10:19:54.070Z,65.53
2018-02-09T10:20:53.943Z,64.77
2018-02-09T10:21:53.814Z,63.82
2018-02-09T10:22:53.684Z,64.17
2018-02-09T10:23:53.557Z,64.83
2018-02-09T10:24:53.429Z,65.78
2018-02-09T10:25:53.297Z,65.40
2018-02-09T10:26:53.168Z,65.91
2018-02-09T10:27:53.041Z,64.01
2018-02-09T10:28:52.913Z,63.64
2018-02-09T10:29:52.785Z,63.07
2018-02-09T10:30:52.656Z,63.20
2018-02-09T10:31:52.526Z,62.43
2018-02-09T10:32:52.399Z,61.02
2018-02-09T10:33:52.276Z,59.41
2018-02-09T10:34:52.146Z,58.74
2018-02-09T10:35:52.017Z,58.84
2018-02-09T10:36:51.888Z,58.45
2018-02-09T10:37:51.811Z,59.25
2018-02-09T10:38:51.631Z,58.77
2018-02-09T10:39:51.513Z,57.57
2018-02-09T10:40:51.377Z,57.57
2018-02-09T10:41:51.250Z,56.62
2018-02-09T10:42:51.120Z,55.38
2018-02-09T10:43:50.995Z,55.86
2018-02-09T10:44:50.868Z,55.57
2018-02-09T10:45:50.744Z,55.48
2018-02-09T10:46:50.615Z,54.63
2018-02-09T10:47:50.488Z,55.64
2018-02-09T10:48:50.358Z,56.97
2018-02-09T10:49:50.234Z,57.19
2018-02-09T10:50:50.108Z,56.99
2018-02-09T10:51:49.981Z,56.24
2018-02-09T10:52:49.856Z,55.29
2018-02-09T10:53:49.729Z,54.72
2018-02-09T10:54:49.602Z,55.74
2018-02-09T10:55:49.477Z,56.97
2018-02-09T10:56:49.351Z,57.16
2018-02-09T10:57:49.225Z,57.19
2018-02-09T10:58:49.096Z,55.67
2018-02-09T10:59:48.971Z,55.67
2018-02-09T11:00:48.844Z,54.82
2018-02-09T11:01:48.775Z,54.82
2018-02-09T11:02:48.592Z,54.18
2018-02-09T11:03:48.468Z,54.37
2018-02-09T11:04:48.343Z,54.63
2018-02-09T11:05:48.214Z,53.30
2018-02-09T11:06:48.090Z,53.58
2018-02-09T11:07:47.967Z,53.96
2018-02-09T11:08:47.836Z,54.25
2018-02-09T11:09:47.712Z,54.53
2018-02-09T11:10:47.584Z,53.30
2018-02-09T11:11:47.461Z,53.02
2018-02-09T11:12:47.336Z,53.68
2018-02-09T11:13:47.209Z,54.41
2018-02-09T11:14:47.086Z,55.00
2018-02-09T11:15:46.955Z,54.72
2018-02-09T11:16:46.833Z,54.60
2018-02-09T11:17:46.703Z,55.64
2018-02-09T11:18:46.576Z,56.24
2018-02-09T11:19:46.452Z,55.10
2018-02-09T11:20:46.324Z,55.67
2018-02-09T11:21:46.198Z,54.63
2018-02-09T11:22:46.072Z,54.85
2018-02-09T11:23:45.946Z,54.37
2018-02-09T11:24:45.821Z,54.25
2018-02-09T11:25:45.696Z,54.03
2018-02-09T11:26:45.568Z,54.69
2018-02-09T11:27:45.441Z,56.12
2018-02-09T11:28:45.317Z,57.16
2018-02-09T11:29:45.230Z,57.19
2018-02-09T11:30:45.064Z,56.24
2018-02-09T11:31:44.935Z,55.19
2018-02-09T11:32:44.812Z,55.19
2018-02-09T11:33:44.686Z,55.67
2018-02-09T11:34:44.557Z,55.83
2018-02-09T11:35:44.433Z,56.34
2018-02-09T11:36:44.305Z,55.60
2018-02-09T11:37:44.183Z,54.06
2018-02-09T11:38:44.052Z,54.15
2018-02-09T11:39:43.926Z,54.34
2018-02-09T11:40:43.800Z,53.77
2018-02-09T11:41:43.674Z,53.39
2018-02-09T11:42:43.546Z,53.77
2018-02-09T11:43:43.420Z,54.53
2018-02-09T11:44:43.295Z,53.77
2018-02-09T11:45:43.167Z,52.64
2018-02-09T11:46:43.044Z,52.26
2018-02-09T11:47:42.914Z,52.92
2018-02-09T11:48:42.787Z,52.80
2018-02-09T11:49:42.662Z,53.27
2018-02-09T11:50:42.534Z,53.72
2018-02-09T11:51:42.413Z,54.47
2018-02-09T11:52:42.306Z,53.27
2018-02-09T11:53:42.155Z,53.30
2018-02-09T11:54:42.028Z,52.64
2018-02-09T11:55:41.898Z,52.16
2018-02-09T11:56:41.777Z,52.66
2018-02-09T11:57:41.649Z,52.28
2018-02-09T11:58:41.520Z,51.50
2018-02-09T11:59:41.392Z,51.90
2018-02-09T12:00:41.266Z,51.24
2018-02-09T12:01:41.141Z,51.07
2018-02-09T12:02:41.012Z,49.46
2018-02-09T12:03:40.887Z,48.11
2018-02-09T12:04:40.855Z,48.11
2018-02-09T12:05:40.636Z,48.36
2018-02-09T12:06:40.566Z,48.27
2018-02-09T12:07:40.381Z,49.41
2018-02-09T12:08:40.257Z,49.57
2018-02-09T12:09:40.129Z,50.81
2018-02-09T12:10:40.010Z,51.57
2018-02-09T12:11:40.078Z,51.66
2018-02-09T12:12:46.877Z,52.04
2018-02-09T12:14:33.286Z,52.35
2018-02-09T12:15:33.123Z,50.64
2018-02-09T12:17:25.780Z,50.01
2018-02-09T12:18:25.645Z,49.60
2018-02-09T12:20:33.239Z,49.72
2018-02-09T12:21:33.033Z,49.69
2018-02-09T12:23:26.518Z,50.83
2018-02-09T12:24:26.386Z,51.21
2018-02-09T12:26:19.085Z,52.33
2018-02-09T12:27:18.910Z,53.08
2018-02-09T12:29:11.575Z,54.10
2018-02-09T12:30:11.442Z,55.43
2018-02-09T12:32:05.738Z,57.13
2018-02-09T12:33:05.573Z,57.70
2018-02-09T12:34:59.081Z,59.00
2018-02-09T12:35:58.948Z,59.75
2018-02-09T12:37:51.638Z,60.13
2018-02-09T12:38:51.467Z,59.09
2018-02-09T12:40:44.118Z,58.62
2018-02-09T12:41:43.991Z,59.59
2018-02-09T12:43:36.689Z,59.09
2018-02-09T12:44:36.525Z,58.43
2018-02-09T12:46:29.163Z,59.28
2018-02-09T12:47:29.028Z,59.00
2018-02-09T12:49:21.735Z,58.74
2018-02-09T12:50:21.550Z,57.89
2018-02-09T12:52:14.210Z,56.18
2018-02-09T12:53:14.116Z,56.94
2018-02-09T12:55:06.786Z,56.94
2018-02-09T12:56:06.609Z,56.94
2018-02-09T12:57:06.481Z,56.56
2018-02-09T12:58:06.351Z,55.43
2018-02-09T12:59:06.228Z,55.43
2018-02-09T13:00:06.102Z,54.67
2018-02-09T13:01:05.969Z,55.33
2018-02-09T13:02:05.843Z,54.47
2018-02-09T13:03:05.717Z,54.28
2018-02-09T13:04:05.588Z,54.47